Time;durP1;ratioP1;P1;durP2;ratioP2;P2;SDS_P1;SDS_P2;PMS_P1;PMS_P2;Temp;Humidity;BMP_temperature;BMP_pressure;BME280_temperature;BME280_humidity;BME280_pressure;Samples;Min_cycle;Max_cycle;Signal;HPM_P1;HPM_P2
2022/12/31 00:00:33;;;;;;;12.30;2.38;;;12.50;99.90;;;;;;5030960;28;20545;-70
2022/12/31 00:02:58;;;;;;;8.93;2.10;;;12.60;99.90;;;;;;5020107;28;20102;-70
2022/12/31 00:05:24;;;;;;;10.15;2.25;;;12.60;99.90;;;;;;5031320;28;20108;-71
2022/12/31 00:07:49;;;;;;;9.43;1.63;;;12.60;99.90;;;;;;5031647;28;20068;-70
2022/12/31 00:10:15;;;;;;;8.45;1.55;;;12.60;99.90;;;;;;5027878;28;20112;-71
2022/12/31 00:12:40;;;;;;;11.25;2.13;;;12.50;99.90;;;;;;5031469;28;20026;-70
2022/12/31 00:15:06;;;;;;;9.90;2.55;;;12.50;99.90;;;;;;5030986;28;20044;-70
2022/12/31 00:17:32;;;;;;;14.48;2.40;;;12.50;99.90;;;;;;5027737;28;20041;-70
2022/12/31 00:19:57;;;;;;;19.65;2.85;;;12.50;99.90;;;;;;5028147;28;20032;-71
2022/12/31 00:22:23;;;;;;;11.32;1.98;;;12.60;99.90;;;;;;5031081;28;20387;-70
2022/12/31 00:24:48;;;;;;;12.68;2.35;;;12.60;99.90;;;;;;5031144;28;20041;-69
2022/12/31 00:27:15;;;;;;;13.50;2.15;;;12.60;99.90;;;;;;5028597;28;20079;-69
2022/12/31 00:29:40;;;;;;;11.40;2.00;;;12.50;99.90;;;;;;5031810;28;20117;-70
2022/12/31 00:32:06;;;;;;;9.90;2.10;;;12.50;99.90;;;;;;5033268;28;20486;-70
2022/12/31 00:34:31;;;;;;;11.85;2.38;;;12.50;99.90;;;;;;5030246;28;20454;-70
2022/12/31 00:36:57;;;;;;;15.60;2.25;;;12.50;99.90;;;;;;5032486;28;20029;-71
2022/12/31 00:39:22;;;;;;;11.93;1.73;;;12.40;99.90;;;;;;5023454;28;20026;-70
2022/12/31 00:41:48;;;;;;;15.32;2.00;;;12.40;99.90;;;;;;5032902;28;20033;-70
2022/12/31 00:44:13;;;;;;;10.57;1.58;;;12.40;99.90;;;;;;5034667;28;20045;-70
2022/12/31 00:46:39;;;;;;;12.63;2.40;;;12.30;99.90;;;;;;5027816;28;20041;-71
2022/12/31 00:49:05;;;;;;;11.60;2.10;;;12.30;99.90;;;;;;5026402;28;20558;-70
2022/12/31 00:51:31;;;;;;;13.93;1.90;;;12.30;99.90;;;;;;5033921;28;20376;-70
2022/12/31 00:53:57;;;;;;;6.90;1.83;;;12.30;99.90;;;;;;5032172;28;20124;-70
2022/12/31 00:56:26;;;;;;;16.10;1.67;;;12.20;99.90;;;;;;5034742;28;20448;-70
2022/12/31 00:58:52;;;;;;;14.65;2.17;;;12.30;99.90;;;;;;5034306;28;20507;-70
2022/12/31 01:01:19;;;;;;;12.75;2.70;;;12.30;99.90;;;;;;5031971;28;20045;-69
2022/12/31 01:03:46;;;;;;;15.80;2.22;;;12.20;99.90;;;;;;5030794;28;20056;-70
2022/12/31 01:06:11;;;;;;;16.40;2.97;;;12.20;99.90;;;;;;5034306;28;20104;-69
2022/12/31 01:08:37;;;;;;;17.25;2.30;;;12.20;99.90;;;;;;5027736;28;20117;-70
2022/12/31 01:11:18;;;;;;;16.27;2.08;;;12.20;99.90;;;;;;5025460;28;20541;-70
2022/12/31 01:14:02;;;;;;;15.63;2.42;;;12.20;99.90;;;;;;5032950;28;20100;-70
2022/12/31 01:16:32;;;;;;;15.43;2.65;;;12.20;99.90;;;;;;5032825;28;20049;-69
2022/12/31 01:19:00;;;;;;;15.90;2.58;;;12.20;99.90;;;;;;5033461;28;20029;-70
2022/12/31 01:21:26;;;;;;;22.38;2.60;;;12.20;99.90;;;;;;5033478;28;20475;-70
2022/12/31 01:23:52;;;;;;;17.98;2.08;;;12.20;99.90;;;;;;5030350;28;20034;-70
2022/12/31 01:26:18;;;;;;;16.25;2.42;;;12.10;99.90;;;;;;5031307;28;20117;-69
2022/12/31 01:28:45;;;;;;;15.98;2.83;;;12.10;99.90;;;;;;5032276;28;20029;-70
2022/12/31 01:31:14;;;;;;;17.10;3.25;;;12.10;99.90;;;;;;5028362;28;20087;-70
2022/12/31 01:33:40;;;;;;;12.43;2.45;;;12.10;99.90;;;;;;5029884;28;20029;-70
2022/12/31 01:36:09;;;;;;;12.40;2.97;;;12.10;99.90;;;;;;5033209;28;20022;-70
2022/12/31 01:38:35;;;;;;;13.80;2.10;;;12.10;99.90;;;;;;5029774;28;20037;-71
2022/12/31 01:41:01;;;;;;;12.13;2.38;;;12.10;99.90;;;;;;5030861;28;20087;-69
2022/12/31 01:43:41;;;;;;;13.70;1.95;;;12.10;99.90;;;;;;5021254;28;20038;-70
2022/12/31 01:46:09;;;;;;;13.32;2.25;;;12.00;99.90;;;;;;5025289;28;20100;-69
2022/12/31 01:48:35;;;;;;;12.02;1.90;;;12.00;99.90;;;;;;5027866;28;20028;-69
2022/12/31 01:51:01;;;;;;;18.42;2.85;;;12.00;99.90;;;;;;5029633;28;20487;-69
2022/12/31 01:53:27;;;;;;;16.83;2.78;;;12.00;99.90;;;;;;5028443;28;20053;-70
2022/12/31 01:55:56;;;;;;;14.20;2.00;;;12.00;99.90;;;;;;5032343;28;20083;-70
2022/12/31 01:58:38;;;;;;;16.95;2.85;;;12.00;99.90;;;;;;5033022;28;20036;-70
2022/12/31 02:01:06;;;;;;;;;;;12.00;99.90;;;;;;5027811;28;20032;-70
2022/12/31 02:03:32;;;;;;;14.27;2.30;;;12.00;99.90;;;;;;5031650;28;19924;-70
2022/12/31 02:06:04;;;;;;;20.23;3.35;;;12.00;99.90;;;;;;5031782;28;20029;-70
2022/12/31 02:08:29;;;;;;;15.45;1.85;;;12.00;99.90;;;;;;5032846;28;20029;-69
2022/12/31 02:10:55;;;;;;;13.38;2.00;;;12.00;99.90;;;;;;5031843;28;20526;-70
2022/12/31 02:13:21;;;;;;;12.05;2.28;;;12.00;99.90;;;;;;5030467;28;20033;-70
2022/12/31 02:16:13;;;;;;;10.13;1.65;;;12.00;99.90;;;;;;5030997;28;20509;-69
2022/12/31 02:19:03;;;;;;;14.95;2.58;;;12.00;99.90;;;;;;5017472;28;20029;-69
2022/12/31 02:21:44;;;;;;;14.40;1.98;;;12.00;99.90;;;;;;5031769;28;20021;-68
2022/12/31 02:24:15;;;;;;;12.02;2.00;;;12.10;99.90;;;;;;5033090;28;20044;-68
2022/12/31 02:26:48;;;;;;;13.60;2.25;;;12.10;99.90;;;;;;5032314;28;20108;-70
2022/12/31 02:29:38;;;;;;;12.15;2.72;;;12.10;99.90;;;;;;5028997;28;20037;-69
2022/12/31 02:32:15;;;;;;;9.45;2.03;;;12.20;99.90;;;;;;5025773;28;20029;-68
2022/12/31 02:34:54;;;;;;;14.93;2.05;;;12.20;99.90;;;;;;5029064;28;20022;-69
2022/12/31 02:37:22;;;;;;;9.98;1.90;;;12.20;99.90;;;;;;5032000;28;20044;-70
2022/12/31 02:39:48;;;;;;;13.40;2.15;;;12.20;99.90;;;;;;5032300;28;20033;-70
2022/12/31 02:42:14;;;;;;;10.52;2.17;;;12.20;99.90;;;;;;5032048;28;20057;-70
2022/12/31 02:44:41;;;;;;;16.85;2.78;;;12.20;99.90;;;;;;5031941;28;20142;-69
2022/12/31 02:47:12;;;;;;;16.00;2.67;;;12.20;99.90;;;;;;5028626;28;20167;-70
2022/12/31 02:50:09;;;;;;;9.43;2.03;;;12.20;99.90;;;;;;5031102;28;20057;-70
2022/12/31 02:52:57;;;;;;;12.55;2.05;;;12.20;99.90;;;;;;5025069;28;20037;-70
2022/12/31 02:55:46;;;;;;;11.60;2.28;;;12.20;99.90;;;;;;5032426;28;20076;-69
2022/12/31 03:02:12;;;;;;;12.82;2.00;;;12.20;99.90;;;;;;5030574;28;20040;-69
2022/12/31 03:06:52;;;;;;;13.40;2.78;;;12.00;99.90;;;;;;5031337;28;20040;-69
2022/12/31 03:09:18;;;;;;;15.68;2.83;;;12.00;99.90;;;;;;5024222;28;20025;-69
2022/12/31 03:14:28;;;;;;;11.65;2.05;;;12.00;99.90;;;;;;5031178;28;20083;-69
2022/12/31 03:16:54;;;;;;;16.42;2.40;;;11.90;99.90;;;;;;5027204;28;20021;-71
2022/12/31 03:27:32;;;;;;;19.15;2.45;;;11.80;99.90;;;;;;5024193;28;20403;-69
2022/12/31 03:29:57;;;;;;;13.00;2.00;;;11.80;99.90;;;;;;5028983;28;20033;-70
2022/12/31 03:32:23;;;;;;;15.25;2.90;;;11.70;99.90;;;;;;5018385;28;20037;-69
2022/12/31 03:34:48;;;;;;;21.27;3.40;;;11.70;99.90;;;;;;5029638;28;20032;-70
2022/12/31 03:37:14;;;;;;;11.95;1.95;;;11.70;99.90;;;;;;5031801;28;20117;-70
2022/12/31 03:39:39;;;;;;;11.60;1.70;;;11.60;99.90;;;;;;5032302;28;20379;-70
2022/12/31 03:42:05;;;;;;;14.65;3.47;;;11.60;99.90;;;;;;5031562;28;20517;-70
2022/12/31 03:44:31;;;;;;;11.63;1.92;;;11.50;99.90;;;;;;5031938;28;20133;-70
2022/12/31 03:46:56;;;;;;;14.55;1.77;;;11.50;99.90;;;;;;5030883;28;20026;-70
2022/12/31 03:49:30;;;;;;;19.48;3.40;;;11.50;99.90;;;;;;5029912;28;20051;-71
2022/12/31 03:51:56;;;;;;;12.90;1.70;;;11.40;99.90;;;;;;5039718;28;20116;-71
2022/12/31 03:54:21;;;;;;;14.38;2.30;;;11.40;99.90;;;;;;5033542;28;20116;-70
2022/12/31 03:56:47;;;;;;;14.02;1.63;;;11.40;99.90;;;;;;5031809;28;20123;-70
2022/12/31 03:59:12;;;;;;;10.43;1.58;;;11.40;99.90;;;;;;5032018;28;20029;-70
2022/12/31 04:01:38;;;;;;;11.63;2.22;;;11.40;99.90;;;;;;5032987;28;20026;-70
2022/12/31 04:04:03;;;;;;;15.38;3.47;;;11.40;99.90;;;;;;5035811;28;20026;-70
2022/12/31 04:06:29;;;;;;;14.57;2.05;;;11.40;99.90;;;;;;5035358;28;20033;-70
2022/12/31 04:08:55;;;;;;;9.52;1.90;;;11.40;99.90;;;;;;5035372;28;20025;-69
2022/12/31 04:11:20;;;;;;;15.90;2.95;;;11.40;99.90;;;;;;5035458;28;20029;-69
2022/12/31 04:13:46;;;;;;;6.38;1.33;;;11.40;99.90;;;;;;5035990;28;20029;-69
2022/12/31 04:16:11;;;;;;;14.98;2.30;;;11.40;99.90;;;;;;5034890;28;20033;-70
2022/12/31 04:18:37;;;;;;;12.02;1.83;;;11.40;99.90;;;;;;5035866;28;20026;-70
2022/12/31 04:21:03;;;;;;;10.10;1.83;;;11.40;99.90;;;;;;5035554;28;20029;-69
2022/12/31 04:23:29;;;;;;;10.95;1.45;;;11.40;99.90;;;;;;5035073;28;20045;-69
2022/12/31 04:25:55;;;;;;;5.22;0.90;;;11.50;99.90;;;;;;5035160;28;20030;-70
2022/12/31 04:28:20;;;;;;;6.43;1.40;;;11.50;99.90;;;;;;5035578;28;20045;-70
2022/12/31 04:30:47;;;;;;;14.65;2.40;;;11.40;99.90;;;;;;5028771;28;20129;-70
2022/12/31 04:33:13;;;;;;;9.30;1.45;;;11.40;99.90;;;;;;5035457;28;20029;-69
2022/12/31 04:35:38;;;;;;;7.82;1.55;;;11.30;99.90;;;;;;5034149;28;20032;-70
2022/12/31 04:38:04;;;;;;;8.77;1.98;;;11.30;99.90;;;;;;5034544;28;20100;-69
2022/12/31 04:40:29;;;;;;;13.32;1.83;;;11.30;99.90;;;;;;5035259;28;20029;-70
2022/12/31 04:42:55;;;;;;;7.40;1.38;;;11.30;99.90;;;;;;5034774;28;20108;-70
2022/12/31 04:45:20;;;;;;;6.22;1.98;;;11.20;99.90;;;;;;5035243;28;20364;-69
2022/12/31 04:47:46;;;;;;;12.52;2.28;;;11.20;99.90;;;;;;5034816;28;20041;-69
2022/12/31 04:50:11;;;;;;;7.80;1.90;;;11.30;99.90;;;;;;5035185;28;20057;-70
2022/12/31 04:52:37;;;;;;;9.45;2.35;;;11.30;99.90;;;;;;5034475;28;20025;-70
2022/12/31 04:55:03;;;;;;;6.00;1.63;;;11.30;99.90;;;;;;5035141;28;20028;-70
2022/12/31 04:57:28;;;;;;;8.50;1.48;;;11.30;99.90;;;;;;5034814;28;20052;-69
2022/12/31 04:59:54;;;;;;;8.65;1.40;;;11.20;99.90;;;;;;5034933;28;20037;-70
2022/12/31 05:02:20;;;;;;;1.13;0.85;;;11.20;99.90;;;;;;5034241;28;20068;-70
2022/12/31 05:04:45;;;;;;;6.40;1.75;;;11.20;99.90;;;;;;5034886;28;20052;-70
2022/12/31 05:07:11;;;;;;;4.95;1.63;;;11.30;99.90;;;;;;5034630;28;20044;-70
2022/12/31 05:09:36;;;;;;;5.13;1.13;;;11.20;99.90;;;;;;5035003;28;20075;-70
2022/12/31 05:12:02;;;;;;;2.55;1.30;;;11.30;99.90;;;;;;5034360;28;20025;-69
2022/12/31 05:14:28;;;;;;;2.10;1.00;;;11.30;99.90;;;;;;5033171;28;20029;-70
2022/12/31 05:16:53;;;;;;;6.28;1.08;;;11.40;99.90;;;;;;5034981;28;20478;-70
2022/12/31 05:19:19;;;;;;;3.45;1.13;;;11.40;99.90;;;;;;5034810;28;20033;-70
2022/12/31 05:22:27;;;;;;;1.38;0.75;;;11.40;99.90;;;;;;5034299;28;20021;-70
2022/12/31 05:24:30;;;;;;;5.35;1.10;;;11.40;99.90;;;;;;5033775;28;20037;-70
2022/12/31 05:26:56;;;;;;;7.20;1.63;;;11.40;99.90;;;;;;5034289;28;20124;-71
2022/12/31 05:29:21;;;;;;;2.03;0.65;;;11.40;99.90;;;;;;5034369;28;20041;-71
2022/12/31 05:31:47;;;;;;;3.22;0.73;;;11.40;99.90;;;;;;5027630;28;20037;-71
2022/12/31 05:34:12;;;;;;;2.22;0.60;;;11.40;99.90;;;;;;5034514;28;20037;-70
2022/12/31 05:36:38;;;;;;;1.42;0.60;;;11.50;99.90;;;;;;5034233;28;20036;-71
2022/12/31 05:39:03;;;;;;;1.27;0.63;;;11.50;99.90;;;;;;5034578;28;20026;-71
2022/12/31 05:41:29;;;;;;;2.03;0.85;;;11.50;99.90;;;;;;5034187;28;20117;-70
2022/12/31 05:43:54;;;;;;;3.75;0.90;;;11.50;99.90;;;;;;5034119;28;20041;-71
2022/12/31 05:46:20;;;;;;;1.75;0.80;;;11.50;99.90;;;;;;5034468;28;20040;-70
2022/12/31 05:48:45;;;;;;;1.20;1.05;;;11.50;99.90;;;;;;5033661;28;20041;-70
2022/12/31 05:51:11;;;;;;;3.42;0.93;;;11.50;99.90;;;;;;5033178;28;20037;-70
2022/12/31 05:53:36;;;;;;;2.65;1.30;;;11.50;99.90;;;;;;5033801;28;20083;-70
2022/12/31 05:56:02;;;;;;;2.08;1.40;;;11.50;99.90;;;;;;5034113;28;20117;-70
2022/12/31 05:58:27;;;;;;;3.95;1.60;;;11.50;99.90;;;;;;5033682;28;20104;-70
2022/12/31 06:00:53;;;;;;;3.42;1.77;;;11.50;99.90;;;;;;5032746;28;20021;-70
2022/12/31 06:03:19;;;;;;;4.45;2.45;;;11.40;99.90;;;;;;5030617;28;20120;-70
2022/12/31 06:05:44;;;;;;;4.95;2.63;;;11.50;99.90;;;;;;5039702;28;20028;-69
2022/12/31 06:08:11;;;;;;;4.80;2.92;;;11.50;99.90;;;;;;5044052;28;20021;-70
2022/12/31 06:10:36;;;;;;;6.28;3.38;;;11.50;99.90;;;;;;5033066;28;20025;-70
2022/12/31 06:13:02;;;;;;;6.28;3.38;;;11.50;99.90;;;;;;5033852;28;20041;-71
2022/12/31 06:15:28;;;;;;;6.68;3.83;;;11.50;99.90;;;;;;5032934;28;20116;-69
2022/12/31 06:17:53;;;;;;;6.63;3.35;;;11.50;99.90;;;;;;5032230;28;20105;-71
2022/12/31 06:20:19;;;;;;;6.80;2.85;;;11.50;99.90;;;;;;5032945;28;20033;-70
2022/12/31 06:22:44;;;;;;;4.68;2.30;;;11.50;99.90;;;;;;5033434;28;20030;-70
2022/12/31 06:25:10;;;;;;;5.60;2.60;;;11.50;99.90;;;;;;5033355;28;20117;-70
2022/12/31 06:27:35;;;;;;;3.78;2.55;;;11.50;99.90;;;;;;5033377;28;20115;-70
2022/12/31 06:30:01;;;;;;;3.22;1.88;;;11.60;99.90;;;;;;5030310;28;20025;-70
2022/12/31 06:32:28;;;;;;;3.03;1.58;;;11.60;99.90;;;;;;5031326;28;20091;-70
2022/12/31 06:34:53;;;;;;;5.05;2.35;;;11.60;99.90;;;;;;5033627;28;20034;-70
2022/12/31 06:37:19;;;;;;;3.72;2.20;;;11.70;99.90;;;;;;5033320;28;20129;-70
2022/12/31 06:39:44;;;;;;;2.10;1.67;;;11.70;99.90;;;;;;5033377;28;20053;-70
2022/12/31 06:42:10;;;;;;;1.98;1.10;;;11.80;99.90;;;;;;5032987;28;20029;-70
2022/12/31 06:44:36;;;;;;;3.05;1.30;;;11.80;99.90;;;;;;5032911;28;20060;-69
2022/12/31 06:47:01;;;;;;;5.05;1.80;;;11.90;99.90;;;;;;5033013;28;20458;-70
2022/12/31 06:49:27;;;;;;;3.00;1.67;;;11.90;99.90;;;;;;5032772;28;20060;-70
2022/12/31 06:51:52;;;;;;;2.90;1.40;;;12.00;99.90;;;;;;5032867;28;20090;-70
2022/12/31 06:54:18;;;;;;;3.65;1.50;;;12.00;99.90;;;;;;5032611;28;20025;-71
2022/12/31 06:56:44;;;;;;;3.80;1.48;;;12.10;99.90;;;;;;5033941;28;20083;-71
2022/12/31 06:59:22;;;;;;;4.72;1.80;;;12.20;99.90;;;;;;5032541;28;20021;-71
2022/12/31 07:01:56;;;;;;;4.65;1.98;;;12.30;99.90;;;;;;5032426;28;20085;-70
2022/12/31 07:04:55;;;;;;;5.47;2.22;;;12.30;99.90;;;;;;5032094;28;20065;-70
2022/12/31 07:07:23;;;;;;;5.90;1.90;;;12.40;99.90;;;;;;5032410;28;20064;-70
2022/12/31 07:10:02;;;;;;;3.50;1.63;;;12.50;99.90;;;;;;5032750;28;20116;-70
2022/12/31 07:12:48;;;;;;;5.93;1.48;;;12.60;99.90;;;;;;5032080;28;20689;-70
2022/12/31 07:15:36;;;;;;;7.30;1.25;;;12.60;99.90;;;;;;5032656;28;20084;-70
2022/12/31 07:18:13;;;;;;;4.88;1.40;;;12.60;99.90;;;;;;5027532;28;20032;-71
2022/12/31 07:20:39;;;;;;;4.10;1.17;;;12.70;99.90;;;;;;5016207;28;20035;-70
2022/12/31 07:23:07;;;;;;;11.13;1.42;;;12.70;99.90;;;;;;5032385;28;20025;-70
2022/12/31 07:25:35;;;;;;;8.65;1.27;;;12.70;99.90;;;;;;5032397;28;20075;-70
2022/12/31 07:28:14;;;;;;;7.82;1.45;;;12.70;99.90;;;;;;5031392;28;20108;-70
2022/12/31 07:30:49;;;;;;;8.48;1.40;;;12.80;99.90;;;;;;5018656;28;20091;-70
2022/12/31 07:33:26;;;;;;;8.73;1.38;;;12.80;99.90;;;;;;5033223;28;20044;-70
2022/12/31 07:36:07;;;;;;;8.27;1.85;;;12.80;99.90;;;;;;5031787;28;20029;-70
2022/12/31 07:38:41;;;;;;;11.77;1.25;;;12.80;99.90;;;;;;5032690;28;20946;-70
2022/12/31 07:41:38;;;;;;;9.50;1.70;;;12.70;99.90;;;;;;5032214;28;20029;-71
2022/12/31 07:44:28;;;;;;;7.05;1.30;;;12.80;99.90;;;;;;5031619;28;20072;-70
2022/12/31 07:46:56;;;;;;;13.77;1.65;;;12.80;99.90;;;;;;5017687;28;20037;-71
2022/12/31 07:49:24;;;;;;;9.63;1.30;;;12.80;99.90;;;;;;5032696;28;20080;-71
2022/12/31 07:51:50;;;;;;;9.52;1.45;;;12.80;99.90;;;;;;5031466;28;20099;-70
2022/12/31 07:54:15;;;;;;;12.95;1.85;;;12.80;99.90;;;;;;5031795;28;20365;-70
2022/12/31 07:56:42;;;;;;;6.80;1.60;;;12.90;99.90;;;;;;5032117;28;20067;-70
2022/12/31 07:59:39;;;;;;;9.27;1.58;;;12.90;99.90;;;;;;5031602;28;20099;-70
2022/12/31 08:02:32;;;;;;;8.02;1.85;;;13.00;99.90;;;;;;5031651;28;20033;-71
2022/12/31 08:05:16;;;;;;;7.15;1.65;;;13.00;99.90;;;;;;5024335;28;20064;-69
2022/12/31 08:07:55;;;;;;;14.68;1.95;;;13.00;99.90;;;;;;5031415;28;20029;-69
2022/12/31 08:10:33;;;;;;;8.90;1.65;;;13.10;99.90;;;;;;5031107;28;20048;-70
2022/12/31 08:13:07;;;;;;;5.28;1.50;;;13.10;99.90;;;;;;5031795;28;20029;-70
2022/12/31 08:15:32;;;;;;;6.88;1.17;;;13.10;99.90;;;;;;5031956;28;20029;-70
2022/12/31 08:17:58;;;;;;;5.20;0.88;;;13.10;99.90;;;;;;5031713;28;20026;-71
2022/12/31 08:20:25;;;;;;;6.93;1.58;;;13.10;99.90;;;;;;5031737;28;20037;-70
2022/12/31 08:22:51;;;;;;;10.63;1.73;;;13.10;99.90;;;;;;5031984;28;20026;-70
2022/12/31 08:25:30;;;;;;;6.80;1.50;;;13.10;99.90;;;;;;5030092;28;20579;-71
2022/12/31 08:28:15;;;;;;;10.38;1.70;;;13.00;99.90;;;;;;5030358;28;20459;-71
2022/12/31 08:31:05;;;;;;;13.13;2.28;;;13.00;99.90;;;;;;5030445;28;20469;-71
2022/12/31 08:33:45;;;;;;;12.07;2.22;;;13.00;99.90;;;;;;5031604;28;20118;-71
2022/12/31 08:36:14;;;;;;;18.15;3.42;;;12.90;99.90;;;;;;5031171;28;20029;-71
2022/12/31 08:38:59;;;;;;;10.50;1.90;;;12.90;99.90;;;;;;5020009;28;20386;-70
2022/12/31 08:41:39;;;;;;;21.55;3.22;;;12.90;99.90;;;;;;5025134;28;20076;-70
2022/12/31 08:44:18;;;;;;;13.43;2.13;;;12.90;99.90;;;;;;5029626;28;20037;-70
2022/12/31 08:47:23;;;;;;;17.05;2.05;;;12.90;99.90;;;;;;5030367;28;20037;-69
2022/12/31 08:49:48;;;;;;;18.63;3.08;;;12.90;99.90;;;;;;5031802;28;20046;-70
2022/12/31 08:52:18;;;;;;;18.67;3.00;;;13.00;99.90;;;;;;5035018;28;20045;-69
2022/12/31 08:54:44;;;;;;;12.32;2.20;;;12.90;99.90;;;;;;5034867;28;20108;-69
2022/12/31 08:57:29;;;;;;;16.60;2.35;;;12.90;99.90;;;;;;5034221;28;20112;-69
2022/12/31 09:00:04;;;;;;;14.48;3.35;;;12.90;99.90;;;;;;5034751;28;20037;-70
2022/12/31 09:02:43;;;;;;;19.45;3.35;;;12.90;99.90;;;;;;5033655;28;20025;-69
2022/12/31 09:05:19;;;;;;;17.15;2.85;;;12.90;99.90;;;;;;5034843;28;20120;-68
2022/12/31 09:07:57;;;;;;;12.10;2.08;;;12.90;99.90;;;;;;5034092;28;20431;-69
2022/12/31 09:10:57;;;;;;;14.45;2.58;;;12.90;99.90;;;;;;5034645;28;20030;-70
2022/12/31 09:13:50;;;;;;;14.23;2.15;;;13.00;99.90;;;;;;5034030;28;20071;-69
2022/12/31 09:16:19;;;;;;;12.25;2.33;;;13.00;99.90;;;;;;5034806;28;20064;-69
2022/12/31 09:18:45;;;;;;;19.40;3.13;;;13.10;99.90;;;;;;5033713;28;20425;-69
2022/12/31 09:21:15;;;;;;;17.45;2.97;;;13.10;99.90;;;;;;5034338;28;20047;-70
2022/12/31 09:23:41;;;;;;;17.17;2.55;;;13.20;99.90;;;;;;5026630;28;20072;-69
2022/12/31 09:26:18;;;;;;;17.33;2.92;;;13.20;99.90;;;;;;5029002;28;20178;-69
2022/12/31 09:28:56;;;;;;;16.63;2.95;;;13.20;99.90;;;;;;5033434;28;20022;-70
2022/12/31 09:31:43;;;;;;;19.30;3.45;;;13.30;99.90;;;;;;5034054;28;20030;-70
2022/12/31 09:34:50;;;;;;;12.88;2.53;;;13.30;99.90;;;;;;5033704;28;20609;-70
2022/12/31 09:37:32;;;;;;;17.75;3.03;;;13.30;99.90;;;;;;5025884;28;20431;-68
2022/12/31 09:40:01;;;;;;;18.50;3.03;;;13.40;99.90;;;;;;5033966;28;20044;-70
2022/12/31 09:42:56;;;;;;;19.80;3.28;;;13.40;99.90;;;;;;5033786;28;20108;-69
2022/12/31 09:45:40;;;;;;;16.40;2.97;;;13.40;99.90;;;;;;5031020;28;20041;-69
2022/12/31 09:48:39;;;;;;;16.80;2.50;;;13.40;99.90;;;;;;5033072;28;20029;-69
2022/12/31 09:51:30;;;;;;;12.65;2.08;;;13.40;99.90;;;;;;5019833;28;20544;-68
2022/12/31 09:54:20;;;;;;;11.13;2.33;;;13.50;99.90;;;;;;5033856;28;20486;-70
2022/12/31 09:57:20;;;;;;;15.15;2.72;;;13.50;99.90;;;;;;5028701;28;20021;-69
2022/12/31 09:59:56;;;;;;;15.15;2.30;;;13.50;99.90;;;;;;5032205;28;20042;-70
2022/12/31 10:02:40;;;;;;;19.63;2.80;;;13.50;99.90;;;;;;5032884;28;20034;-69
2022/12/31 10:05:11;;;;;;;16.52;2.65;;;13.50;99.90;;;;;;5033474;28;20124;-70
2022/12/31 10:07:55;;;;;;;17.50;2.70;;;13.50;99.90;;;;;;5032642;28;20029;-70
2022/12/31 10:10:22;;;;;;;17.15;2.80;;;13.50;99.90;;;;;;5033171;28;20029;-70
2022/12/31 10:13:10;;;;;;;11.30;2.40;;;13.40;99.90;;;;;;5032657;28;20529;-71
2022/12/31 10:16:02;;;;;;;18.48;2.60;;;13.40;99.90;;;;;;5032426;28;20033;-71
2022/12/31 10:18:50;;;;;;;26.98;2.95;;;13.20;99.90;;;;;;5030628;28;20372;-71
2022/12/31 10:21:52;;;;;;;24.45;3.13;;;13.10;99.90;;;;;;5036344;28;20048;-70
2022/12/31 10:24:44;;;;;;;21.73;3.30;;;13.00;99.90;;;;;;5033365;28;20060;-70
2022/12/31 10:27:31;;;;;;;27.42;4.75;;;12.90;99.90;;;;;;5030066;28;20032;-69
2022/12/31 10:30:16;;;;;;;29.33;4.50;;;12.80;99.90;;;;;;5033664;28;20100;-71
2022/12/31 10:32:47;;;;;;;21.63;3.20;;;12.70;99.90;;;;;;5020381;28;20727;-72
2022/12/31 10:35:24;;;;;;;29.95;4.70;;;12.60;99.90;;;;;;5028700;28;20068;-72
2022/12/31 10:38:17;;;;;;;21.73;3.15;;;12.60;99.90;;;;;;5030953;28;20033;-71
2022/12/31 10:41:20;;;;;;;29.95;3.80;;;12.50;99.90;;;;;;5029258;28;20045;-71
2022/12/31 10:44:11;;;;;;;16.17;3.05;;;12.60;99.90;;;;;;5030625;28;20043;-71
2022/12/31 10:46:57;;;;;;;16.02;2.92;;;12.60;99.90;;;;;;5032276;28;20029;-72
2022/12/31 10:49:44;;;;;;;21.15;2.90;;;12.70;99.90;;;;;;5023971;28;20049;-72
2022/12/31 10:52:46;;;;;;;15.77;2.20;;;12.80;99.90;;;;;;5026977;28;20543;-71
2022/12/31 10:55:28;;;;;;;12.70;1.67;;;12.90;99.90;;;;;;5032292;28;20029;-72
2022/12/31 10:58:26;;;;;;;18.02;4.03;;;13.10;99.90;;;;;;5031650;28;20029;-72
2022/12/31 11:01:18;;;;;;;18.83;2.83;;;13.20;99.90;;;;;;5031175;28;20033;-70
2022/12/31 11:03:52;;;;;;;;;;;13.30;99.90;;;;;;5020353;28;20116;-70
2022/12/31 11:06:49;;;;;;;15.95;2.58;;;13.40;99.90;;;;;;5032682;28;19913;-70
2022/12/31 11:09:51;;;;;;;18.73;2.50;;;13.50;99.90;;;;;;5027963;28;20447;-70
2022/12/31 11:12:38;;;;;;;15.32;3.80;;;13.60;99.90;;;;;;5032863;28;20069;-71
2022/12/31 11:15:19;;;;;;;19.67;3.08;;;13.60;99.90;;;;;;5027905;28;20422;-70
2022/12/31 11:17:59;;;;;;;17.45;3.42;;;13.70;99.90;;;;;;5035251;28;20032;-71
2022/12/31 11:20:42;;;;;;;11.45;2.95;;;13.70;99.90;;;;;;5029882;28;20422;-71
2022/12/31 11:23:49;;;;;;;13.73;2.22;;;13.70;99.90;;;;;;5019779;28;20037;-71
2022/12/31 11:26:15;;;;;;;10.23;2.40;;;13.60;99.90;;;;;;5026515;28;20042;-71
2022/12/31 11:28:46;;;;;;;13.35;2.72;;;13.60;99.90;;;;;;5026030;28;20064;-71
2022/12/31 11:31:15;;;;;;;18.95;2.65;;;13.70;99.90;;;;;;5027978;28;20042;-71
2022/12/31 11:33:40;;;;;;;15.82;2.72;;;13.70;99.90;;;;;;5025779;28;20041;-71
2022/12/31 11:36:12;;;;;;;20.98;3.13;;;13.60;99.90;;;;;;5017388;28;20385;-69
2022/12/31 11:39:04;;;;;;;14.20;2.40;;;13.60;99.90;;;;;;5026793;28;20491;-70
2022/12/31 11:41:41;;;;;;;19.52;2.90;;;13.60;99.90;;;;;;5025578;28;20041;-70
2022/12/31 11:44:48;;;;;;;16.88;2.80;;;13.60;99.90;;;;;;5030918;28;20052;-70
2022/12/31 11:47:33;;;;;;;21.42;4.03;;;13.50;99.90;;;;;;5023207;28;20049;-71
2022/12/31 11:50:14;;;;;;;26.35;3.50;;;13.40;99.90;;;;;;5023098;28;20104;-70
2022/12/31 11:53:12;;;;;;;19.85;2.83;;;13.30;99.90;;;;;;5021533;28;20092;-70
2022/12/31 11:56:00;;;;;;;15.05;2.53;;;13.30;99.90;;;;;;5020640;28;20041;-71
2022/12/31 11:58:28;;;;;;;16.45;3.30;;;13.20;99.90;;;;;;5030161;28;20474;-71
2022/12/31 12:01:03;;;;;;;18.00;2.97;;;13.10;99.90;;;;;;5029086;28;20048;-70
2022/12/31 12:03:30;;;;;;;20.33;3.35;;;13.10;99.90;;;;;;5029111;28;20033;-71
2022/12/31 12:05:57;;;;;;;19.52;3.47;;;13.10;99.90;;;;;;5027557;28;20025;-70
2022/12/31 12:08:24;;;;;;;28.15;4.50;;;13.00;99.90;;;;;;5025438;28;20116;-71
2022/12/31 12:10:59;;;;;;;23.67;3.55;;;12.90;99.90;;;;;;5025800;28;20029;-71
2022/12/31 12:13:26;;;;;;;27.17;4.15;;;12.90;99.90;;;;;;5029246;28;20494;-70
2022/12/31 12:15:56;;;;;;;21.75;3.13;;;12.80;99.90;;;;;;5029164;28;20030;-71
2022/12/31 12:18:39;;;;;;;15.05;2.80;;;12.80;99.90;;;;;;5029935;28;20032;-71
2022/12/31 12:21:17;;;;;;;14.30;3.25;;;12.70;99.90;;;;;;5029506;28;20049;-70
2022/12/31 12:24:20;;;;;;;18.67;3.70;;;12.70;99.90;;;;;;5032139;28;20529;-71
2022/12/31 12:26:47;;;;;;;10.85;2.58;;;12.60;99.90;;;;;;5026159;28;20081;-71
2022/12/31 12:29:17;;;;;;;8.35;2.38;;;12.60;99.90;;;;;;5031154;28;20065;-71
2022/12/31 12:32:12;;;;;;;8.30;2.03;;;12.60;99.90;;;;;;5033285;28;20026;-71
2022/12/31 12:34:39;;;;;;;11.30;2.10;;;12.60;99.90;;;;;;5033946;28;20033;-71
2022/12/31 12:37:21;;;;;;;6.53;1.40;;;12.60;99.90;;;;;;5031729;28;20533;-71
2022/12/31 12:40:08;;;;;;;6.25;2.10;;;12.70;99.90;;;;;;5033931;28;20033;-71
2022/12/31 12:42:34;;;;;;;8.68;2.22;;;12.70;99.90;;;;;;5033432;28;20124;-70
2022/12/31 12:45:14;;;;;;;11.02;2.55;;;12.70;99.90;;;;;;5028650;28;20128;-71
2022/12/31 12:47:42;;;;;;;13.20;3.60;;;12.80;99.90;;;;;;5034128;28;20025;-71
2022/12/31 12:50:18;;;;;;;15.85;3.58;;;12.90;99.90;;;;;;5033508;28;20510;-71
2022/12/31 12:53:16;;;;;;;18.42;4.10;;;12.90;99.90;;;;;;5033939;28;20026;-71
2022/12/31 12:56:00;;;;;;;10.00;2.75;;;13.10;99.90;;;;;;5034491;28;20041;-71
2022/12/31 12:58:41;;;;;;;10.20;2.55;;;13.10;99.90;;;;;;5028683;28;20057;-71
2022/12/31 13:01:33;;;;;;;10.40;2.70;;;13.20;99.90;;;;;;5034316;28;20029;-71
2022/12/31 13:04:29;;;;;;;12.80;2.75;;;13.30;99.90;;;;;;5029855;28;20040;-71
2022/12/31 13:07:21;;;;;;;10.65;2.92;;;13.40;99.90;;;;;;5034078;28;20487;-72
2022/12/31 13:09:58;;;;;;;9.70;2.58;;;13.50;99.90;;;;;;5028241;28;20045;-72
2022/12/31 13:12:51;;;;;;;7.82;2.58;;;13.60;99.90;;;;;;5030773;28;20119;-72
2022/12/31 13:15:27;;;;;;;8.35;2.25;;;13.70;99.90;;;;;;5031427;28;20036;-72
2022/12/31 13:18:11;;;;;;;11.65;2.80;;;13.80;99.90;;;;;;5032614;28;20025;-71
2022/12/31 13:20:52;;;;;;;8.52;3.13;;;13.90;99.90;;;;;;5020727;28;20030;-72
2022/12/31 13:23:36;;;;;;;7.93;2.67;;;13.90;99.90;;;;;;5032434;28;20477;-71
2022/12/31 13:26:06;;;;;;;8.63;2.65;;;14.00;99.90;;;;;;5032640;28;20021;-71
2022/12/31 13:28:32;;;;;;;6.22;1.98;;;14.10;99.90;;;;;;5027473;28;20087;-71
2022/12/31 13:31:05;;;;;;;11.57;2.97;;;14.10;99.90;;;;;;5033570;28;20048;-72